createdAt,value
2018-02-02T00:02:24.485Z,3.90
2018-02-02T00:04:52.288Z,3.80
2018-02-02T00:07:19.944Z,3.90
2018-02-02T00:09:47.809Z,3.90
2018-02-02T00:12:16.144Z,3.80
2018-02-02T00:14:44.035Z,4.00
2018-02-02T00:17:11.714Z,4.00
2018-02-02T00:19:39.477Z,4.00
2018-02-02T00:22:07.140Z,4.00
2018-02-02T00:24:35.351Z,4.00
2018-02-02T00:27:03.776Z,3.80
2018-02-02T00:29:31.388Z,3.80
2018-02-02T00:31:59.004Z,3.80
2018-02-02T00:34:27.581Z,4.00
2018-02-02T00:36:55.793Z,3.60
2018-02-02T00:39:23.445Z,3.70
2018-02-02T00:41:51.830Z,3.80
2018-02-02T00:44:20.249Z,3.70
2018-02-02T00:46:47.905Z,3.70
2018-02-02T00:49:15.518Z,3.60
2018-02-02T00:51:48.773Z,3.50
2018-02-02T00:54:16.431Z,3.60
2018-02-02T00:56:44.712Z,3.70
2018-02-02T00:59:12.381Z,3.70
2018-02-02T01:01:39.997Z,3.70
2018-02-02T01:04:07.645Z,3.70
2018-02-02T01:06:36.062Z,3.70
2018-02-02T01:09:03.691Z,3.50
2018-02-02T01:11:31.373Z,3.70
2018-02-02T01:13:58.986Z,3.60
2018-02-02T01:16:26.641Z,3.50
2018-02-02T01:18:54.470Z,3.70
2018-02-02T01:21:22.144Z,3.70
2018-02-02T01:23:49.797Z,3.70
2018-02-02T01:26:17.413Z,3.70
2018-02-02T01:28:45.130Z,3.70
2018-02-02T01:31:12.759Z,3.70
2018-02-02T01:33:40.419Z,3.70
2018-02-02T01:36:08.038Z,3.70
2018-02-02T01:38:35.693Z,3.70
2018-02-02T01:41:03.721Z,3.70
2018-02-02T01:43:31.637Z,3.70
2018-02-02T01:45:59.290Z,3.70
2018-02-02T01:48:26.905Z,3.70
2018-02-02T01:50:54.556Z,3.70
2018-02-02T01:53:22.169Z,3.80
2018-02-02T01:55:50.585Z,3.70
2018-02-02T01:58:18.232Z,3.50
2018-02-02T02:00:45.933Z,3.70
2018-02-02T02:03:13.555Z,3.70
2018-02-02T02:05:41.185Z,3.70
2018-02-02T02:08:09.000Z,3.70
2018-02-02T02:10:36.618Z,3.70
2018-02-02T02:13:05.039Z,3.70
2018-02-02T02:15:32.652Z,3.50
2018-02-02T02:18:01.071Z,3.50
2018-02-02T02:20:28.925Z,3.60
2018-02-02T02:22:56.577Z,3.30
2018-02-02T02:25:24.228Z,3.60
2018-02-02T02:27:52.049Z,3.30
2018-02-02T02:30:19.701Z,3.80
2018-02-02T02:32:47.316Z,3.00
2018-02-02T02:35:14.976Z,3.20
2018-02-02T02:37:43.379Z,3.40
2018-02-02T02:40:13.013Z,3.40
2018-02-02T02:42:40.777Z,3.40
2018-02-02T02:45:08.397Z,3.70
2018-02-02T02:47:36.305Z,3.40
2018-02-02T02:50:03.921Z,3.40
2018-02-02T02:52:31.572Z,3.60
2018-02-02T02:54:59.224Z,3.50
2018-02-02T02:57:26.840Z,3.70
2018-02-02T02:59:55.086Z,3.70
2018-02-02T03:02:22.709Z,3.70
2018-02-02T03:04:51.140Z,3.50
2018-02-02T03:07:18.752Z,3.50
2018-02-02T03:09:46.415Z,3.50
2018-02-02T03:12:14.801Z,3.50
2018-02-02T03:14:42.421Z,3.40
2018-02-02T03:17:10.100Z,3.60
2018-02-02T03:19:38.481Z,3.40
2018-02-02T03:22:06.861Z,3.50
2018-02-02T03:24:35.282Z,3.50
2018-02-02T03:27:03.501Z,3.30
2018-02-02T03:29:31.921Z,3.40
2018-02-02T03:31:59.568Z,3.40
2018-02-02T03:34:27.217Z,3.40
2018-02-02T03:36:54.872Z,3.40
2018-02-02T03:39:22.485Z,3.30
2018-02-02T03:41:50.582Z,3.30
2018-02-02T03:44:18.413Z,3.50
2018-02-02T03:46:46.093Z,3.50
2018-02-02T03:49:13.709Z,3.50
2018-02-02T03:51:41.617Z,3.50
2018-02-02T03:54:09.266Z,3.40
2018-02-02T03:56:36.881Z,3.30
2018-02-02T03:59:04.543Z,3.30
2018-02-02T04:01:32.163Z,3.30
2018-02-02T04:04:00.585Z,3.30
2018-02-02T04:06:28.227Z,3.30
2018-02-02T04:08:56.964Z,3.40
2018-02-02T04:11:24.580Z,3.40
2018-02-02T04:13:52.964Z,3.30
2018-02-02T04:16:20.618Z,3.30
2018-02-02T04:18:49.008Z,3.40
2018-02-02T04:21:16.666Z,3.30
2018-02-02T04:23:44.284Z,3.50
2018-02-02T04:26:11.936Z,3.40
2018-02-02T04:28:41.093Z,3.40
2018-02-02T04:31:08.704Z,3.40
2018-02-02T04:33:37.093Z,3.30
2018-02-02T04:36:19.629Z,3.30
2018-02-02T04:38:47.285Z,3.30
2018-02-02T04:41:15.129Z,3.30
2018-02-02T04:43:42.776Z,3.50
2018-02-02T04:46:10.442Z,3.50
2018-02-02T04:48:38.309Z,3.50
2018-02-02T04:51:05.981Z,3.20
2018-02-02T04:53:33.636Z,3.20
2018-02-02T04:56:01.293Z,3.40
2018-02-02T04:58:28.950Z,3.30
2018-02-02T05:00:56.616Z,3.40
2018-02-02T05:03:24.272Z,3.40
2018-02-02T05:05:52.938Z,3.40
2018-02-02T05:08:20.702Z,3.20
2018-02-02T05:10:50.642Z,3.20
2018-02-02T05:13:19.072Z,3.20
2018-02-02T05:15:46.688Z,3.20
2018-02-02T05:18:14.336Z,3.40
2018-02-02T05:20:42.717Z,3.30
2018-02-02T05:23:10.372Z,3.20
2018-02-02T05:25:38.754Z,3.10
2018-02-02T05:28:07.522Z,3.20
2018-02-02T05:30:35.140Z,3.00
2018-02-02T05:33:04.840Z,3.00
2018-02-02T05:35:35.828Z,3.00
2018-02-02T05:38:07.527Z,3.20
2018-02-02T05:40:35.779Z,3.00
2018-02-02T05:43:03.912Z,3.00
2018-02-02T05:45:31.585Z,3.00
2018-02-02T05:48:00.373Z,3.00
2018-02-02T05:50:29.528Z,3.00
2018-02-02T05:52:57.425Z,2.60
2018-02-02T05:55:25.584Z,3.40
2018-02-02T05:57:53.203Z,3.40
2018-02-02T06:00:21.962Z,3.40
2018-02-02T06:02:52.353Z,3.30
2018-02-02T06:05:21.382Z,3.40
2018-02-02T06:07:50.500Z,3.40
2018-02-02T06:10:20.391Z,3.30
2018-02-02T06:12:51.809Z,3.00
2018-02-02T06:15:20.797Z,3.10
2018-02-02T06:17:50.285Z,3.30
2018-02-02T06:20:19.365Z,3.20
2018-02-02T06:22:48.171Z,3.50
2018-02-02T06:25:17.698Z,3.50
2018-02-02T06:27:47.054Z,3.50
2018-02-02T06:30:15.804Z,3.40
2018-02-02T06:32:44.866Z,3.40
2018-02-02T06:35:12.485Z,3.40
2018-02-02T06:37:40.297Z,3.40
2018-02-02T06:42:38.842Z,2.90
2018-02-02T06:45:06.488Z,3.40
2018-02-02T06:47:34.096Z,3.40
2018-02-02T06:50:01.745Z,3.40
2018-02-02T06:52:29.393Z,3.40
2018-02-02T06:54:57.061Z,3.40
2018-02-02T06:57:24.667Z,3.30
2018-02-02T06:59:53.239Z,3.30
2018-02-02T07:02:20.887Z,3.30
2018-02-02T07:04:48.502Z,3.30
2018-02-02T07:07:16.925Z,3.50
2018-02-02T07:09:44.534Z,3.30
2018-02-02T07:12:12.149Z,3.30
2018-02-02T07:14:39.898Z,3.30
2018-02-02T07:17:07.513Z,3.30
2018-02-02T07:19:35.165Z,3.20
2018-02-02T07:22:03.547Z,3.50
2018-02-02T07:24:31.255Z,3.30
2018-02-02T07:26:58.870Z,3.40
2018-02-02T07:29:27.308Z,3.40
2018-02-02T07:31:55.951Z,3.50
2018-02-02T07:34:24.198Z,3.50
2018-02-02T07:36:52.425Z,3.50
2018-02-02T07:39:20.100Z,3.50
2018-02-02T07:41:47.748Z,3.20
2018-02-02T07:44:15.353Z,3.40
2018-02-02T07:46:44.398Z,3.20
2018-02-02T07:49:12.051Z,3.10
2018-02-02T07:51:39.672Z,3.50
2018-02-02T07:54:07.391Z,3.50
2018-02-02T07:56:35.002Z,3.50
2018-02-02T07:59:02.622Z,3.50
2018-02-02T08:01:30.382Z,3.50
2018-02-02T08:03:58.537Z,3.50
2018-02-02T08:06:26.191Z,3.50
2018-02-02T08:08:53.804Z,3.40
2018-02-02T08:11:21.453Z,3.30
2018-02-02T08:13:50.259Z,3.80
2018-02-02T08:16:17.921Z,3.40
2018-02-02T08:18:45.537Z,3.50
2018-02-02T08:21:13.157Z,3.60
2018-02-02T08:23:41.146Z,3.80
2018-02-02T08:26:08.826Z,3.60
2018-02-02T08:28:36.468Z,3.70
2018-02-02T08:31:04.085Z,3.80
2018-02-02T08:33:32.445Z,3.70
2018-02-02T08:36:00.058Z,3.80
2018-02-02T08:38:27.713Z,3.80
2018-02-02T08:40:55.324Z,3.60
2018-02-02T08:43:22.939Z,3.80
2018-02-02T08:45:50.589Z,3.60
2018-02-02T08:48:18.207Z,3.70
2018-02-02T08:50:46.620Z,3.70
2018-02-02T08:53:14.521Z,3.50
2018-02-02T08:55:42.140Z,3.70
2018-02-02T08:58:09.753Z,3.80
2018-02-02T09:00:37.417Z,3.80
2018-02-02T09:03:05.031Z,3.90
2018-02-02T09:05:32.689Z,3.70
2018-02-02T09:08:00.297Z,3.70
2018-02-02T09:10:27.953Z,3.60
2018-02-02T09:12:55.569Z,3.70
2018-02-02T09:15:23.221Z,3.70
2018-02-02T09:17:50.833Z,3.70
2018-02-02T09:20:18.485Z,3.80
2018-02-02T09:22:46.142Z,3.60
2018-02-02T09:25:13.797Z,3.40
2018-02-02T09:27:41.545Z,3.60
2018-02-02T09:30:09.433Z,3.50
2018-02-02T09:32:37.730Z,3.70
2018-02-02T09:35:05.654Z,3.80
2018-02-02T09:37:33.317Z,3.50
2018-02-02T09:40:00.941Z,3.80
2018-02-02T09:42:28.554Z,3.80
2018-02-02T09:44:56.212Z,3.50
2018-02-02T09:47:24.073Z,3.70
2018-02-02T09:49:51.690Z,3.70
2018-02-02T09:52:19.343Z,3.70
2018-02-02T09:54:47.608Z,3.60
2018-02-02T09:57:15.219Z,3.70
2018-02-02T09:59:42.873Z,3.90
2018-02-02T10:02:10.484Z,3.80
2018-02-02T10:04:38.133Z,3.80
2018-02-02T10:07:05.746Z,4.00
2018-02-02T10:09:33.401Z,4.10
2018-02-02T10:12:01.053Z,3.80
2018-02-02T10:14:28.957Z,3.80
2018-02-02T10:16:56.704Z,4.10
2018-02-02T10:19:24.371Z,3.60
2018-02-02T10:21:51.988Z,3.70
2018-02-02T10:24:20.543Z,3.80
2018-02-02T10:26:48.980Z,3.70
2018-02-02T10:29:16.600Z,3.60
2018-02-02T10:31:44.216Z,3.90
2018-02-02T10:34:11.961Z,3.90
2018-02-02T10:36:39.610Z,4.10
2018-02-02T10:39:07.838Z,4.20
2018-02-02T10:41:35.453Z,3.90
2018-02-02T10:44:03.061Z,3.80
2018-02-02T10:46:30.709Z,4.00
2018-02-02T10:48:58.325Z,4.00
2018-02-02T10:51:25.983Z,4.10
2018-02-02T10:53:53.677Z,4.30
2018-02-02T10:56:21.293Z,4.40
2018-02-02T10:58:48.948Z,4.40
2018-02-02T11:01:22.217Z,4.40
2018-02-02T11:03:56.181Z,4.30
2018-02-02T11:06:23.796Z,4.10
2018-02-02T11:08:51.423Z,4.40
2018-02-02T11:11:21.329Z,4.00
2018-02-02T11:13:48.984Z,3.90
2018-02-02T11:16:17.217Z,4.30
2018-02-02T11:18:45.605Z,4.30
2018-02-02T11:21:13.237Z,4.30
2018-02-02T11:23:40.856Z,3.80
2018-02-02T11:26:08.511Z,4.30
2018-02-02T11:28:36.164Z,4.10
2018-02-02T11:31:03.773Z,4.20
2018-02-02T11:33:32.649Z,4.20
2018-02-02T11:36:00.284Z,3.80
2018-02-02T11:38:27.961Z,4.10
2018-02-02T11:40:55.577Z,4.00
2018-02-02T11:43:23.609Z,4.00
2018-02-02T11:45:52.720Z,4.20
2018-02-02T11:48:20.336Z,3.90
2018-02-02T11:50:47.944Z,3.80
2018-02-02T11:53:15.604Z,4.20
2018-02-02T11:55:43.305Z,3.90
2018-02-02T11:58:10.922Z,3.90
2018-02-02T12:00:38.576Z,4.10
2018-02-02T12:03:06.477Z,4.10
2018-02-02T12:05:34.141Z,4.10
2018-02-02T12:08:01.791Z,4.10
2018-02-02T12:10:29.452Z,4.10
2018-02-02T12:12:57.077Z,4.20
2018-02-02T12:15:24.892Z,4.30
2018-02-02T12:17:53.098Z,4.30
2018-02-02T12:20:21.512Z,4.30
2018-02-02T12:25:57.284Z,4.20
2018-02-02T12:41:49.183Z,4.30
2018-02-02T12:44:17.637Z,4.40
2018-02-02T12:46:46.018Z,4.40
2018-02-02T12:49:16.314Z,4.40
2018-02-02T12:51:44.049Z,4.20
2018-02-02T12:54:11.703Z,4.40
2018-02-02T12:56:39.322Z,4.40
2018-02-02T12:59:06.985Z,4.30
2018-02-02T13:01:35.418Z,4.30
2018-02-02T13:04:03.785Z,4.10
2018-02-02T13:06:31.417Z,4.30
2018-02-02T13:08:59.228Z,4.40
2018-02-02T13:11:26.917Z,4.40
2018-02-02T13:13:55.096Z,4.40
2018-02-02T13:16:23.520Z,4.40
2018-02-02T13:18:51.898Z,4.80
2018-02-02T13:21:19.553Z,4.40
2018-02-02T13:23:47.205Z,4.50
2018-02-02T13:26:14.873Z,4.30
2018-02-02T13:28:42.493Z,4.40
2018-02-02T13:31:10.145Z,4.40
2018-02-02T13:33:37.818Z,4.30
2018-02-02T13:36:06.206Z,4.40
2018-02-02T13:38:34.348Z,4.10
2018-02-02T13:41:02.009Z,4.40
2018-02-02T13:43:30.391Z,4.30
2018-02-02T13:45:59.536Z,4.30
2018-02-02T13:48:27.211Z,4.50
2018-02-02T13:50:54.854Z,4.30
2018-02-02T13:53:22.492Z,4.30
2018-02-02T13:55:50.156Z,4.30
2018-02-02T13:58:17.769Z,4.30
2018-02-02T14:00:45.381Z,4.30
2018-02-02T14:03:13.027Z,4.40
2018-02-02T14:05:40.690Z,4.40
2018-02-02T14:08:08.333Z,4.30
2018-02-02T14:10:37.829Z,4.40
2018-02-02T14:13:06.199Z,4.20
2018-02-02T14:15:33.841Z,4.40
2018-02-02T14:18:01.498Z,4.40
2018-02-02T14:20:29.121Z,4.40
2018-02-02T14:22:56.793Z,4.60
2018-02-02T14:25:24.483Z,4.60
2018-02-02T14:27:52.105Z,4.60
2018-02-02T14:30:19.752Z,4.70
2018-02-02T14:32:47.588Z,4.60
2018-02-02T14:35:15.268Z,4.70
2018-02-02T14:37:43.666Z,4.60
2018-02-02T14:40:12.244Z,4.50
2018-02-02T14:42:39.861Z,4.60
2018-02-02T14:45:08.241Z,4.50
2018-02-02T14:47:36.500Z,4.60
2018-02-02T14:50:04.138Z,4.60
2018-02-02T14:52:31.789Z,4.70
2018-02-02T14:54:59.404Z,4.50
2018-02-02T14:57:27.060Z,4.60
2018-02-02T14:59:54.673Z,4.70
2018-02-02T15:02:22.333Z,4.60
2018-02-02T15:04:50.533Z,4.50
2018-02-02T15:07:18.754Z,4.40
2018-02-02T15:09:46.401Z,4.70
2018-02-02T15:12:14.018Z,4.50
2018-02-02T15:14:41.685Z,4.40
2018-02-02T15:17:09.560Z,4.70
2018-02-02T15:19:37.985Z,4.60
2018-02-02T15:22:05.637Z,4.70
2018-02-02T15:24:33.250Z,4.60
2018-02-02T15:27:00.912Z,4.70
2018-02-02T15:29:28.565Z,4.50
2018-02-02T15:31:56.210Z,4.50
2018-02-02T15:34:23.861Z,4.30
2018-02-02T15:36:51.513Z,4.30
2018-02-02T15:39:19.138Z,4.40
2018-02-02T15:41:47.552Z,4.40
2018-02-02T15:44:15.162Z,4.20
2018-02-02T15:46:42.812Z,4.40
2018-02-02T15:49:10.474Z,4.30
2018-02-02T15:51:38.144Z,4.30
2018-02-02T15:54:05.762Z,4.30
2018-02-02T15:56:33.404Z,4.40
2018-02-02T15:59:01.058Z,4.40
2018-02-02T16:01:28.677Z,4.40
2018-02-02T16:03:56.511Z,4.40
2018-02-02T16:06:24.125Z,4.50
2018-02-02T16:08:52.452Z,4.30
2018-02-02T16:11:20.107Z,4.30
2018-02-02T16:13:47.721Z,4.40
2018-02-02T16:16:15.381Z,4.30
2018-02-02T16:18:43.089Z,4.40
2018-02-02T16:21:10.769Z,4.40
2018-02-02T16:23:38.528Z,4.30
2018-02-02T16:26:06.147Z,4.30
2018-02-02T16:28:33.805Z,4.30
2018-02-02T16:31:01.421Z,4.40
2018-02-02T16:33:29.032Z,4.30
2018-02-02T16:35:56.683Z,4.20
2018-02-02T16:38:24.841Z,4.10
2018-02-02T16:40:53.582Z,4.10
2018-02-02T16:43:21.195Z,3.90
2018-02-02T16:45:48.855Z,4.10
2018-02-02T16:48:16.501Z,4.10
2018-02-02T16:50:44.925Z,4.10
2018-02-02T16:53:13.129Z,3.80
2018-02-02T16:55:40.805Z,4.20
2018-02-02T16:58:08.746Z,4.20
2018-02-02T17:00:36.492Z,4.10
2018-02-02T17:03:04.704Z,4.10
2018-02-02T17:05:33.977Z,4.00
2018-02-02T17:08:02.297Z,4.00
2018-02-02T17:10:30.862Z,4.10
2018-02-02T17:12:58.519Z,3.90
2018-02-02T17:15:26.245Z,4.10
2018-02-02T17:17:53.901Z,4.10
2018-02-02T17:20:21.520Z,4.10
2018-02-02T17:22:49.669Z,4.00
2018-02-02T17:25:20.667Z,4.20
2018-02-02T17:27:56.899Z,4.10
2018-02-02T17:30:28.814Z,4.10
2018-02-02T17:32:56.525Z,4.30
2018-02-02T17:35:26.989Z,4.10
2018-02-02T17:37:59.665Z,4.10
2018-02-02T17:40:30.552Z,4.10
2018-02-02T17:43:00.701Z,4.10
2018-02-02T17:45:28.349Z,4.10
2018-02-02T17:47:58.237Z,4.10
2018-02-02T17:50:26.653Z,4.10
2018-02-02T17:52:54.264Z,4.00
2018-02-02T17:55:26.867Z,4.30
2018-02-02T17:57:58.768Z,4.50
2018-02-02T18:00:27.346Z,4.10
2018-02-02T18:03:00.129Z,4.20
2018-02-02T18:05:28.346Z,4.10
2018-02-02T18:07:55.965Z,4.20
2018-02-02T18:10:23.798Z,4.10
2018-02-02T18:12:51.701Z,4.10
2018-02-02T18:15:19.353Z,4.10
2018-02-02T18:17:47.225Z,4.00
2018-02-02T18:20:16.085Z,4.20
2018-02-02T18:22:43.774Z,4.20
2018-02-02T18:25:11.393Z,4.10
2018-02-02T18:27:39.055Z,4.10
2018-02-02T18:30:06.669Z,4.10
2018-02-02T18:32:34.317Z,4.10
2018-02-02T18:35:02.025Z,4.10
2018-02-02T18:37:29.927Z,4.10
2018-02-02T18:39:57.532Z,4.00
2018-02-02T18:42:25.520Z,3.90
2018-02-02T18:44:53.946Z,4.20
2018-02-02T18:47:21.695Z,3.90
2018-02-02T18:49:49.379Z,4.00
2018-02-02T18:52:17.000Z,3.70
2018-02-02T18:54:44.875Z,4.10
2018-02-02T18:57:12.532Z,3.80
2018-02-02T18:59:40.150Z,3.70
2018-02-02T19:02:08.532Z,4.10
2018-02-02T19:04:37.182Z,4.10
2018-02-02T19:07:04.915Z,3.80
2018-02-02T19:09:33.356Z,4.10
2018-02-02T19:12:01.781Z,4.00
2018-02-02T19:14:29.442Z,3.90
2018-02-02T19:16:57.223Z,3.90
2018-02-02T19:19:24.844Z,3.80
2018-02-02T19:21:52.497Z,3.70
2018-02-02T19:24:20.877Z,3.70
2018-02-02T19:26:48.896Z,3.60
2018-02-02T19:29:17.360Z,3.90
2018-02-02T19:31:45.026Z,3.90
2018-02-02T19:34:12.637Z,3.80
2018-02-02T19:36:40.256Z,3.70
2018-02-02T19:39:07.930Z,3.70
2018-02-02T19:41:35.544Z,3.80
2018-02-02T19:44:03.189Z,3.70
2018-02-02T19:46:30.993Z,3.80
2018-02-02T19:48:58.645Z,3.70
2018-02-02T19:51:26.256Z,3.70
2018-02-02T19:53:54.889Z,3.30
2018-02-02T19:56:22.654Z,3.50
2018-02-02T19:58:50.274Z,3.90
2018-02-02T20:01:17.925Z,3.50
2018-02-02T20:03:45.722Z,3.60
2018-02-02T20:06:13.368Z,3.30
2018-02-02T20:08:41.013Z,3.40
2018-02-02T20:11:10.423Z,3.50
2018-02-02T20:13:38.922Z,3.30
2018-02-02T20:16:06.533Z,3.50
2018-02-02T20:18:34.180Z,3.60
2018-02-02T20:21:01.795Z,3.50
2018-02-02T20:23:29.452Z,3.40
2018-02-02T20:25:57.089Z,3.50
2018-02-02T20:28:25.100Z,3.50
2018-02-02T20:30:52.764Z,3.50
2018-02-02T20:33:20.385Z,3.60
2018-02-02T20:35:48.097Z,3.50
2018-02-02T20:38:15.760Z,3.50
2018-02-02T20:40:43.432Z,3.50
2018-02-02T20:43:11.096Z,3.30
2018-02-02T20:45:39.521Z,3.30
2018-02-02T20:48:07.299Z,3.40
2018-02-02T20:50:34.961Z,3.50
2018-02-02T20:53:02.581Z,3.30
2018-02-02T20:55:30.522Z,3.40
2018-02-02T20:57:58.949Z,3.50
2018-02-02T21:00:26.608Z,3.60
2018-02-02T21:02:54.257Z,3.40
2018-02-02T21:05:21.928Z,3.50
2018-02-02T21:07:49.616Z,3.50
2018-02-02T21:10:17.381Z,3.50
2018-02-02T21:12:45.230Z,3.40
2018-02-02T21:15:12.841Z,3.50
2018-02-02T21:17:45.813Z,3.30
2018-02-02T21:20:13.861Z,3.50
2018-02-02T21:22:41.725Z,3.30
2018-02-02T21:25:09.489Z,3.50
2018-02-02T21:27:37.104Z,3.60
2018-02-02T21:30:04.755Z,3.50
2018-02-02T21:32:32.374Z,3.40
2018-02-02T21:35:00.034Z,3.50
2018-02-02T21:37:28.587Z,3.30
2018-02-02T21:39:56.297Z,3.40
2018-02-02T21:42:24.509Z,3.40
2018-02-02T21:44:52.216Z,3.40
2018-02-02T21:47:19.825Z,3.50
2018-02-02T21:49:47.472Z,3.40
2018-02-02T21:52:15.209Z,3.40
2018-02-02T21:54:43.460Z,3.10
2018-02-02T21:57:11.102Z,3.60
2018-02-02T21:59:39.447Z,3.40
2018-02-02T22:02:07.088Z,3.00
2018-02-02T22:04:34.700Z,3.10
2018-02-02T22:07:02.356Z,3.30
2018-02-02T22:09:29.969Z,3.40
2018-02-02T22:11:58.387Z,3.10
2018-02-02T22:14:26.015Z,3.00
2018-02-02T22:16:54.421Z,3.20
2018-02-02T22:19:22.037Z,2.90
2018-02-02T22:21:49.700Z,3.10
2018-02-02T22:24:17.643Z,3.20
2018-02-02T22:26:46.444Z,3.20
2018-02-02T22:29:15.006Z,2.60
2018-02-02T22:31:42.669Z,2.80
2018-02-02T22:34:10.533Z,2.90
2018-02-02T22:36:38.193Z,2.90
2018-02-02T22:39:05.814Z,2.90
2018-02-02T22:41:33.468Z,2.80
2018-02-02T22:44:01.109Z,2.70
2018-02-02T22:46:28.776Z,2.90
2018-02-02T22:48:57.153Z,2.40
2018-02-02T22:51:25.535Z,2.60
2018-02-02T22:53:53.969Z,2.60
2018-02-02T22:56:21.576Z,2.60
2018-02-02T22:58:49.224Z,2.60
2018-02-02T23:01:17.642Z,2.60
2018-02-02T23:03:45.249Z,2.40
2018-02-02T23:06:13.689Z,2.50
2018-02-02T23:08:41.301Z,2.50
2018-02-02T23:11:09.676Z,2.60
2018-02-02T23:13:37.354Z,2.30
2018-02-02T23:16:04.968Z,2.20
2018-02-02T23:18:32.584Z,2.40
2018-02-02T23:21:00.229Z,2.30
2018-02-02T23:23:27.938Z,2.30
2018-02-02T23:25:55.601Z,2.40
2018-02-02T23:28:23.249Z,2.30
2018-02-02T23:30:50.941Z,2.30
2018-02-02T23:33:19.330Z,2.10
2018-02-02T23:35:48.481Z,2.10
2018-02-02T23:38:16.361Z,2.20
2018-02-02T23:40:44.013Z,2.40
2018-02-02T23:43:11.927Z,2.00
2018-02-02T23:45:41.017Z,2.40
2018-02-02T23:48:09.659Z,2.00
2018-02-02T23:50:37.310Z,2.20
2018-02-02T23:53:04.992Z,1.70
2018-02-02T23:55:32.633Z,2.10
2018-02-02T23:58:00.257Z,2.40
